sensor_id;sensor_type;location;lat;lon;timestamp;temperature;humidity
33105;DHT22;19476;51.448;6.674;2023-05-02T00:00:36;18.00;48.80
33105;DHT22;19476;51.448;6.674;2023-05-02T00:03:03;17.90;48.80
33105;DHT22;19476;51.448;6.674;2023-05-02T00:05:29;17.90;49.10
33105;DHT22;19476;51.448;6.674;2023-05-02T00:07:55;17.80;49.00
33105;DHT22;19476;51.448;6.674;2023-05-02T00:10:21;17.80;49.10
33105;DHT22;19476;51.448;6.674;2023-05-02T00:12:47;17.70;49.20
33105;DHT22;19476;51.448;6.674;2023-05-02T00:15:13;17.70;49.30
33105;DHT22;19476;51.448;6.674;2023-05-02T00:17:39;17.60;49.40
33105;DHT22;19476;51.448;6.674;2023-05-02T00:20:09;17.60;49.50
33105;DHT22;19476;51.448;6.674;2023-05-02T00:22:36;17.50;49.40
33105;DHT22;19476;51.448;6.674;2023-05-02T00:25:02;17.50;49.50
33105;DHT22;19476;51.448;6.674;2023-05-02T00:27:32;17.40;49.70
33105;DHT22;19476;51.448;6.674;2023-05-02T00:29:58;17.40;50.10
33105;DHT22;19476;51.448;6.674;2023-05-02T00:32:25;17.30;49.80
33105;DHT22;19476;51.448;6.674;2023-05-02T00:34:51;17.30;50.00
33105;DHT22;19476;51.448;6.674;2023-05-02T00:37:17;17.20;50.20
33105;DHT22;19476;51.448;6.674;2023-05-02T00:39:43;17.20;50.40
33105;DHT22;19476;51.448;6.674;2023-05-02T00:42:09;17.20;50.40
33105;DHT22;19476;51.448;6.674;2023-05-02T00:44:35;17.10;50.50
33105;DHT22;19476;51.448;6.674;2023-05-02T00:47:01;17.00;50.50
33105;DHT22;19476;51.448;6.674;2023-05-02T00:49:27;17.00;50.60
33105;DHT22;19476;51.448;6.674;2023-05-02T00:51:54;17.00;51.40
33105;DHT22;19476;51.448;6.674;2023-05-02T00:54:19;17.00;50.90
33105;DHT22;19476;51.448;6.674;2023-05-02T00:56:45;16.90;50.80
33105;DHT22;19476;51.448;6.674;2023-05-02T00:59:12;17.00;51.00
33105;DHT22;19476;51.448;6.674;2023-05-02T01:02:29;16.90;51.20
33105;DHT22;19476;51.448;6.674;2023-05-02T01:05:17;16.90;52.20
33105;DHT22;19476;51.448;6.674;2023-05-02T01:07:53;16.80;51.90
33105;DHT22;19476;51.448;6.674;2023-05-02T01:13:16;16.80;52.60
33105;DHT22;19476;51.448;6.674;2023-05-02T01:15:46;16.70;52.30
33105;DHT22;19476;51.448;6.674;2023-05-02T01:18:15;16.70;52.20
33105;DHT22;19476;51.448;6.674;2023-05-02T01:20:43;16.70;52.60
33105;DHT22;19476;51.448;6.674;2023-05-02T01:31:10;16.60;52.50
33105;DHT22;19476;51.448;6.674;2023-05-02T01:33:37;16.70;52.60
33105;DHT22;19476;51.448;6.674;2023-05-02T01:36:05;16.70;52.70
33105;DHT22;19476;51.448;6.674;2023-05-02T01:38:33;16.70;52.80
33105;DHT22;19476;51.448;6.674;2023-05-02T01:41:01;16.70;53.00
33105;DHT22;19476;51.448;6.674;2023-05-02T01:43:32;16.70;52.80
33105;DHT22;19476;51.448;6.674;2023-05-02T01:46:01;16.70;53.00
33105;DHT22;19476;51.448;6.674;2023-05-02T01:48:29;16.70;53.00
33105;DHT22;19476;51.448;6.674;2023-05-02T01:50:56;16.80;53.00
33105;DHT22;19476;51.448;6.674;2023-05-02T01:53:25;16.80;53.00
33105;DHT22;19476;51.448;6.674;2023-05-02T01:55:53;16.80;53.20
33105;DHT22;19476;51.448;6.674;2023-05-02T01:58:20;16.80;53.30
33105;DHT22;19476;51.448;6.674;2023-05-02T02:00:47;16.80;52.90
33105;DHT22;19476;51.448;6.674;2023-05-02T02:03:14;16.80;52.80
33105;DHT22;19476;51.448;6.674;2023-05-02T02:05:41;16.80;53.10
33105;DHT22;19476;51.448;6.674;2023-05-02T02:08:08;16.80;53.20
33105;DHT22;19476;51.448;6.674;2023-05-02T02:10:40;16.80;53.00
33105;DHT22;19476;51.448;6.674;2023-05-02T02:13:18;16.90;53.70
33105;DHT22;19476;51.448;6.674;2023-05-02T02:15:49;16.80;53.70
33105;DHT22;19476;51.448;6.674;2023-05-02T02:18:20;16.90;53.70
33105;DHT22;19476;51.448;6.674;2023-05-02T02:20:49;16.90;53.30
33105;DHT22;19476;51.448;6.674;2023-05-02T02:23:20;16.90;53.30
33105;DHT22;19476;51.448;6.674;2023-05-02T02:25:49;16.90;53.40
33105;DHT22;19476;51.448;6.674;2023-05-02T02:28:15;17.00;53.30
33105;DHT22;19476;51.448;6.674;2023-05-02T02:30:41;17.00;53.00
33105;DHT22;19476;51.448;6.674;2023-05-02T02:33:07;17.00;53.00
33105;DHT22;19476;51.448;6.674;2023-05-02T02:35:37;17.00;52.90
33105;DHT22;19476;51.448;6.674;2023-05-02T02:40:43;17.00;52.90
33105;DHT22;19476;51.448;6.674;2023-05-02T02:43:23;17.00;53.20
33105;DHT22;19476;51.448;6.674;2023-05-02T02:46:15;17.00;53.40
33105;DHT22;19476;51.448;6.674;2023-05-02T02:52:13;17.00;53.40
33105;DHT22;19476;51.448;6.674;2023-05-02T02:57:29;17.00;53.20
33105;DHT22;19476;51.448;6.674;2023-05-02T03:00:07;17.00;53.50
33105;DHT22;19476;51.448;6.674;2023-05-02T03:02:36;17.00;53.40
33105;DHT22;19476;51.448;6.674;2023-05-02T03:05:04;17.00;52.80
33105;DHT22;19476;51.448;6.674;2023-05-02T03:07:31;17.00;52.90
33105;DHT22;19476;51.448;6.674;2023-05-02T03:09:57;17.00;52.70
33105;DHT22;19476;51.448;6.674;2023-05-02T03:12:23;17.00;52.60
33105;DHT22;19476;51.448;6.674;2023-05-02T03:14:49;17.00;52.60
33105;DHT22;19476;51.448;6.674;2023-05-02T03:17:15;17.00;52.50
33105;DHT22;19476;51.448;6.674;2023-05-02T03:19:41;17.10;52.40
33105;DHT22;19476;51.448;6.674;2023-05-02T03:22:07;17.10;52.30
33105;DHT22;19476;51.448;6.674;2023-05-02T03:24:33;17.10;52.30
33105;DHT22;19476;51.448;6.674;2023-05-02T03:26:58;17.10;52.10
33105;DHT22;19476;51.448;6.674;2023-05-02T03:29:25;17.10;52.10
33105;DHT22;19476;51.448;6.674;2023-05-02T03:31:51;17.10;52.20
33105;DHT22;19476;51.448;6.674;2023-05-02T03:34:17;17.10;52.00
33105;DHT22;19476;51.448;6.674;2023-05-02T03:36:44;17.10;52.00
33105;DHT22;19476;51.448;6.674;2023-05-02T03:39:10;17.10;51.90
33105;DHT22;19476;51.448;6.674;2023-05-02T03:41:37;17.10;51.90
33105;DHT22;19476;51.448;6.674;2023-05-02T03:44:02;17.00;51.80
33105;DHT22;19476;51.448;6.674;2023-05-02T03:46:28;17.10;51.90
33105;DHT22;19476;51.448;6.674;2023-05-02T03:48:56;17.10;51.80
33105;DHT22;19476;51.448;6.674;2023-05-02T03:51:22;17.10;52.00
33105;DHT22;19476;51.448;6.674;2023-05-02T03:53:48;17.10;51.80
33105;DHT22;19476;51.448;6.674;2023-05-02T03:56:18;17.10;51.80
33105;DHT22;19476;51.448;6.674;2023-05-02T03:58:47;17.10;52.10
33105;DHT22;19476;51.448;6.674;2023-05-02T04:01:14;17.10;52.10
33105;DHT22;19476;51.448;6.674;2023-05-02T04:03:40;17.10;52.10
33105;DHT22;19476;51.448;6.674;2023-05-02T04:06:07;17.10;52.10
33105;DHT22;19476;51.448;6.674;2023-05-02T04:08:33;17.10;52.00
33105;DHT22;19476;51.448;6.674;2023-05-02T04:10:59;16.30;51.60
33105;DHT22;19476;51.448;6.674;2023-05-02T04:13:25;17.10;52.10
33105;DHT22;19476;51.448;6.674;2023-05-02T04:15:50;17.10;52.10
33105;DHT22;19476;51.448;6.674;2023-05-02T04:18:16;17.10;52.20
33105;DHT22;19476;51.448;6.674;2023-05-02T04:20:42;17.10;52.40
33105;DHT22;19476;51.448;6.674;2023-05-02T04:23:09;17.00;52.50
33105;DHT22;19476;51.448;6.674;2023-05-02T04:25:35;17.00;52.70
33105;DHT22;19476;51.448;6.674;2023-05-02T04:28:01;17.00;52.90
33105;DHT22;19476;51.448;6.674;2023-05-02T04:30:27;16.90;53.10
33105;DHT22;19476;51.448;6.674;2023-05-02T04:32:53;17.00;53.30
33105;DHT22;19476;51.448;6.674;2023-05-02T04:35:19;16.90;53.40
33105;DHT22;19476;51.448;6.674;2023-05-02T04:37:45;16.90;53.50
33105;DHT22;19476;51.448;6.674;2023-05-02T04:40:12;16.90;53.80
33105;DHT22;19476;51.448;6.674;2023-05-02T04:42:37;16.90;53.90
33105;DHT22;19476;51.448;6.674;2023-05-02T04:45:03;16.90;53.90
33105;DHT22;19476;51.448;6.674;2023-05-02T04:47:30;16.90;54.10
33105;DHT22;19476;51.448;6.674;2023-05-02T04:49:55;16.90;54.10
33105;DHT22;19476;51.448;6.674;2023-05-02T04:52:21;16.90;54.20
33105;DHT22;19476;51.448;6.674;2023-05-02T04:54:47;16.90;54.30
33105;DHT22;19476;51.448;6.674;2023-05-02T04:57:13;16.90;54.50
33105;DHT22;19476;51.448;6.674;2023-05-02T04:59:39;16.90;54.70
33105;DHT22;19476;51.448;6.674;2023-05-02T05:02:05;16.90;54.70
33105;DHT22;19476;51.448;6.674;2023-05-02T05:04:32;16.80;54.80
33105;DHT22;19476;51.448;6.674;2023-05-02T05:06:58;16.80;54.90
33105;DHT22;19476;51.448;6.674;2023-05-02T05:09:24;16.80;55.00
33105;DHT22;19476;51.448;6.674;2023-05-02T05:11:50;16.80;55.50
33105;DHT22;19476;51.448;6.674;2023-05-02T05:14:16;16.80;55.00
33105;DHT22;19476;51.448;6.674;2023-05-02T05:16:42;16.70;54.90
33105;DHT22;19476;51.448;6.674;2023-05-02T05:19:08;16.70;54.80
33105;DHT22;19476;51.448;6.674;2023-05-02T05:21:33;16.70;55.00
33105;DHT22;19476;51.448;6.674;2023-05-02T05:23:59;16.70;55.10
33105;DHT22;19476;51.448;6.674;2023-05-02T05:26:25;16.70;55.10
33105;DHT22;19476;51.448;6.674;2023-05-02T05:28:51;16.70;55.20
33105;DHT22;19476;51.448;6.674;2023-05-02T05:31:17;16.70;55.30
33105;DHT22;19476;51.448;6.674;2023-05-02T05:33:43;16.70;55.20
33105;DHT22;19476;51.448;6.674;2023-05-02T05:36:10;16.70;55.10
33105;DHT22;19476;51.448;6.674;2023-05-02T05:38:36;16.70;55.10
33105;DHT22;19476;51.448;6.674;2023-05-02T05:41:03;16.70;55.10
33105;DHT22;19476;51.448;6.674;2023-05-02T05:43:30;16.70;55.00
33105;DHT22;19476;51.448;6.674;2023-05-02T05:45:56;16.70;55.50
33105;DHT22;19476;51.448;6.674;2023-05-02T05:48:22;16.70;54.80
33105;DHT22;19476;51.448;6.674;2023-05-02T05:50:48;16.80;54.80
33105;DHT22;19476;51.448;6.674;2023-05-02T05:53:15;16.70;54.60
33105;DHT22;19476;51.448;6.674;2023-05-02T05:55:40;16.70;54.40
33105;DHT22;19476;51.448;6.674;2023-05-02T05:58:07;16.70;54.30
33105;DHT22;19476;51.448;6.674;2023-05-02T06:00:36;16.70;54.20
33105;DHT22;19476;51.448;6.674;2023-05-02T06:03:03;16.60;54.40
33105;DHT22;19476;51.448;6.674;2023-05-02T06:05:29;16.60;54.00
33105;DHT22;19476;51.448;6.674;2023-05-02T06:07:58;16.60;54.00
33105;DHT22;19476;51.448;6.674;2023-05-02T06:10:24;16.60;53.90
33105;DHT22;19476;51.448;6.674;2023-05-02T06:12:50;16.60;53.80
33105;DHT22;19476;51.448;6.674;2023-05-02T06:15:16;16.60;53.70
33105;DHT22;19476;51.448;6.674;2023-05-02T06:17:42;16.60;53.70
33105;DHT22;19476;51.448;6.674;2023-05-02T06:20:08;16.60;54.00
33105;DHT22;19476;51.448;6.674;2023-05-02T06:22:35;16.60;53.50
33105;DHT22;19476;51.448;6.674;2023-05-02T06:25:01;16.60;53.60
33105;DHT22;19476;51.448;6.674;2023-05-02T06:27:27;16.60;53.50
33105;DHT22;19476;51.448;6.674;2023-05-02T06:29:53;16.60;53.60
33105;DHT22;19476;51.448;6.674;2023-05-02T06:32:18;16.60;53.60
33105;DHT22;19476;51.448;6.674;2023-05-02T06:34:45;16.60;53.60
33105;DHT22;19476;51.448;6.674;2023-05-02T06:37:11;16.60;53.60
33105;DHT22;19476;51.448;6.674;2023-05-02T06:39:36;16.60;53.70
33105;DHT22;19476;51.448;6.674;2023-05-02T06:42:02;16.70;53.70
33105;DHT22;19476;51.448;6.674;2023-05-02T06:44:28;16.70;53.70
33105;DHT22;19476;51.448;6.674;2023-05-02T06:46:54;16.70;53.50
33105;DHT22;19476;51.448;6.674;2023-05-02T06:49:21;16.70;53.40
33105;DHT22;19476;51.448;6.674;2023-05-02T06:51:47;16.70;52.90
33105;DHT22;19476;51.448;6.674;2023-05-02T06:54:13;16.70;52.30
33105;DHT22;19476;51.448;6.674;2023-05-02T06:56:40;16.60;52.00
33105;DHT22;19476;51.448;6.674;2023-05-02T06:59:06;16.60;51.80
33105;DHT22;19476;51.448;6.674;2023-05-02T07:01:33;16.50;51.50
33105;DHT22;19476;51.448;6.674;2023-05-02T07:04:00;16.50;51.40
33105;DHT22;19476;51.448;6.674;2023-05-02T07:06:28;16.50;51.50
33105;DHT22;19476;51.448;6.674;2023-05-02T07:08:54;16.40;51.50
33105;DHT22;19476;51.448;6.674;2023-05-02T07:11:19;16.40;51.40
33105;DHT22;19476;51.448;6.674;2023-05-02T07:13:46;16.40;51.40
33105;DHT22;19476;51.448;6.674;2023-05-02T07:16:11;16.40;51.40
33105;DHT22;19476;51.448;6.674;2023-05-02T07:18:37;16.30;51.10
33105;DHT22;19476;51.448;6.674;2023-05-02T07:21:03;16.30;50.90
33105;DHT22;19476;51.448;6.674;2023-05-02T07:23:29;16.30;50.80
33105;DHT22;19476;51.448;6.674;2023-05-02T07:25:55;16.30;50.80
33105;DHT22;19476;51.448;6.674;2023-05-02T07:28:21;16.20;50.70
33105;DHT22;19476;51.448;6.674;2023-05-02T07:30:46;16.20;50.80
33105;DHT22;19476;51.448;6.674;2023-05-02T07:33:14;16.20;51.00
33105;DHT22;19476;51.448;6.674;2023-05-02T07:35:39;16.20;51.20
33105;DHT22;19476;51.448;6.674;2023-05-02T07:38:06;16.20;51.20
33105;DHT22;19476;51.448;6.674;2023-05-02T07:40:32;16.20;51.20
33105;DHT22;19476;51.448;6.674;2023-05-02T07:43:00;16.20;51.10
33105;DHT22;19476;51.448;6.674;2023-05-02T07:45:26;16.30;50.80
33105;DHT22;19476;51.448;6.674;2023-05-02T07:47:52;16.30;50.80
33105;DHT22;19476;51.448;6.674;2023-05-02T07:50:17;16.30;50.60
33105;DHT22;19476;51.448;6.674;2023-05-02T07:52:43;16.30;50.40
33105;DHT22;19476;51.448;6.674;2023-05-02T07:55:09;16.30;50.30
33105;DHT22;19476;51.448;6.674;2023-05-02T07:57:36;16.30;50.20
33105;DHT22;19476;51.448;6.674;2023-05-02T08:00:03;16.30;50.00
33105;DHT22;19476;51.448;6.674;2023-05-02T08:02:35;16.30;50.10
33105;DHT22;19476;51.448;6.674;2023-05-02T08:05:02;16.30;50.00
33105;DHT22;19476;51.448;6.674;2023-05-02T08:07:28;16.40;50.10
33105;DHT22;19476;51.448;6.674;2023-05-02T08:09:54;16.30;49.90
33105;DHT22;19476;51.448;6.674;2023-05-02T08:12:20;16.40;49.80
33105;DHT22;19476;51.448;6.674;2023-05-02T08:14:45;16.40;49.90
33105;DHT22;19476;51.448;6.674;2023-05-02T08:17:11;16.40;49.70
33105;DHT22;19476;51.448;6.674;2023-05-02T08:19:37;16.40;49.80
33105;DHT22;19476;51.448;6.674;2023-05-02T08:22:03;16.40;49.80
33105;DHT22;19476;51.448;6.674;2023-05-02T08:24:29;16.40;49.80
33105;DHT22;19476;51.448;6.674;2023-05-02T08:26:55;16.50;49.90
33105;DHT22;19476;51.448;6.674;2023-05-02T08:29:22;16.50;49.80
33105;DHT22;19476;51.448;6.674;2023-05-02T08:31:49;16.50;49.70
33105;DHT22;19476;51.448;6.674;2023-05-02T08:34:17;16.50;49.50
33105;DHT22;19476;51.448;6.674;2023-05-02T08:36:43;16.60;49.60
33105;DHT22;19476;51.448;6.674;2023-05-02T08:39:10;16.60;49.50
33105;DHT22;19476;51.448;6.674;2023-05-02T08:41:37;16.60;49.40
33105;DHT22;19476;51.448;6.674;2023-05-02T08:44:05;16.70;49.00
33105;DHT22;19476;51.448;6.674;2023-05-02T08:46:34;16.70;48.60
33105;DHT22;19476;51.448;6.674;2023-05-02T08:49:01;16.80;48.40
33105;DHT22;19476;51.448;6.674;2023-05-02T08:51:29;16.80;48.00
33105;DHT22;19476;51.448;6.674;2023-05-02T08:54:01;16.80;47.60
33105;DHT22;19476;51.448;6.674;2023-05-02T08:56:30;16.90;47.00
33105;DHT22;19476;51.448;6.674;2023-05-02T08:58:57;16.90;47.40
33105;DHT22;19476;51.448;6.674;2023-05-02T09:01:23;16.90;47.00
33105;DHT22;19476;51.448;6.674;2023-05-02T09:03:52;17.00;46.90
33105;DHT22;19476;51.448;6.674;2023-05-02T09:06:21;17.00;46.90
33105;DHT22;19476;51.448;6.674;2023-05-02T09:08:49;17.10;46.40
33105;DHT22;19476;51.448;6.674;2023-05-02T09:11:17;17.10;46.10
33105;DHT22;19476;51.448;6.674;2023-05-02T09:13:44;17.20;45.90
33105;DHT22;19476;51.448;6.674;2023-05-02T09:16:15;17.20;46.00
33105;DHT22;19476;51.448;6.674;2023-05-02T09:18:46;17.20;45.90
33105;DHT22;19476;51.448;6.674;2023-05-02T09:21:17;17.20;45.70
33105;DHT22;19476;51.448;6.674;2023-05-02T09:23:48;17.30;45.50
33105;DHT22;19476;51.448;6.674;2023-05-02T09:26:28;17.30;45.40
33105;DHT22;19476;51.448;6.674;2023-05-02T09:29:00;17.40;45.40
33105;DHT22;19476;51.448;6.674;2023-05-02T09:31:27;17.50;45.70
33105;DHT22;19476;51.448;6.674;2023-05-02T09:34:12;17.50;45.20
33105;DHT22;19476;51.448;6.674;2023-05-02T09:36:49;17.60;44.90
33105;DHT22;19476;51.448;6.674;2023-05-02T09:39:22;17.70;44.70
33105;DHT22;19476;51.448;6.674;2023-05-02T09:41:48;17.70;44.90
33105;DHT22;19476;51.448;6.674;2023-05-02T09:44:19;17.80;44.70
33105;DHT22;19476;51.448;6.674;2023-05-02T09:46:53;17.90;44.20
33105;DHT22;19476;51.448;6.674;2023-05-02T09:49:41;17.90;43.30
33105;DHT22;19476;51.448;6.674;2023-05-02T09:52:15;18.00;43.00
33105;DHT22;19476;51.448;6.674;2023-05-02T09:54:41;18.00;42.80
33105;DHT22;19476;51.448;6.674;2023-05-02T09:57:07;17.90;43.00
33105;DHT22;19476;51.448;6.674;2023-05-02T09:59:35;17.90;43.10
33105;DHT22;19476;51.448;6.674;2023-05-02T10:02:05;17.90;43.10
33105;DHT22;19476;51.448;6.674;2023-05-02T10:04:33;17.60;42.50
33105;DHT22;19476;51.448;6.674;2023-05-02T10:06:59;17.80;42.90
33105;DHT22;19476;51.448;6.674;2023-05-02T10:09:29;17.70;42.80
33105;DHT22;19476;51.448;6.674;2023-05-02T10:12:01;17.70;42.60
33105;DHT22;19476;51.448;6.674;2023-05-02T10:14:38;17.70;42.80
33105;DHT22;19476;51.448;6.674;2023-05-02T10:17:30;17.70;42.30
33105;DHT22;19476;51.448;6.674;2023-05-02T10:20:00;17.70;42.40
33105;DHT22;19476;51.448;6.674;2023-05-02T10:22:29;17.70;42.90
33105;DHT22;19476;51.448;6.674;2023-05-02T10:24:57;17.70;42.70
33105;DHT22;19476;51.448;6.674;2023-05-02T10:27:24;17.70;42.60
33105;DHT22;19476;51.448;6.674;2023-05-02T10:29:50;17.80;42.40
33105;DHT22;19476;51.448;6.674;2023-05-02T10:32:17;17.80;42.40
33105;DHT22;19476;51.448;6.674;2023-05-02T10:34:45;17.90;42.60
33105;DHT22;19476;51.448;6.674;2023-05-02T10:37:12;17.90;42.30
33105;DHT22;19476;51.448;6.674;2023-05-02T10:39:38;18.00;42.10
33105;DHT22;19476;51.448;6.674;2023-05-02T10:42:05;18.10;42.00
33105;DHT22;19476;51.448;6.674;2023-05-02T10:44:36;18.10;41.70
33105;DHT22;19476;51.448;6.674;2023-05-02T10:47:22;18.10;41.60
33105;DHT22;19476;51.448;6.674;2023-05-02T10:50:01;18.10;41.00
33105;DHT22;19476;51.448;6.674;2023-05-02T10:52:31;18.10;40.90
33105;DHT22;19476;51.448;6.674;2023-05-02T11:00:32;18.40;40.50
33105;DHT22;19476;51.448;6.674;2023-05-02T11:02:59;18.50;40.50
33105;DHT22;19476;51.448;6.674;2023-05-02T11:05:26;18.60;40.90
33105;DHT22;19476;51.448;6.674;2023-05-02T11:10:40;18.80;39.50
33105;DHT22;19476;51.448;6.674;2023-05-02T11:13:06;18.90;39.90
33105;DHT22;19476;51.448;6.674;2023-05-02T11:18:00;18.90;39.60
33105;DHT22;19476;51.448;6.674;2023-05-02T11:20:27;19.00;39.30
33105;DHT22;19476;51.448;6.674;2023-05-02T11:22:55;18.90;38.70
33105;DHT22;19476;51.448;6.674;2023-05-02T11:25:39;18.90;38.20
33105;DHT22;19476;51.448;6.674;2023-05-02T11:28:07;18.90;37.60
33105;DHT22;19476;51.448;6.674;2023-05-02T11:30:43;18.80;38.10
33105;DHT22;19476;51.448;6.674;2023-05-02T11:33:11;18.90;37.60
33105;DHT22;19476;51.448;6.674;2023-05-02T11:35:41;18.90;38.00
33105;DHT22;19476;51.448;6.674;2023-05-02T11:38:18;18.90;38.20
33105;DHT22;19476;51.448;6.674;2023-05-02T11:40:57;19.00;37.70
33105;DHT22;19476;51.448;6.674;2023-05-02T11:43:25;19.10;36.90
33105;DHT22;19476;51.448;6.674;2023-05-02T11:45:55;19.10;36.90
33105;DHT22;19476;51.448;6.674;2023-05-02T11:48:22;19.20;36.60
33105;DHT22;19476;51.448;6.674;2023-05-02T11:50:50;19.30;36.70
33105;DHT22;19476;51.448;6.674;2023-05-02T11:53:20;19.30;36.20
33105;DHT22;19476;51.448;6.674;2023-05-02T11:55:50;19.40;35.70
33105;DHT22;19476;51.448;6.674;2023-05-02T11:58:18;19.50;35.70
33105;DHT22;19476;51.448;6.674;2023-05-02T12:00:45;19.50;35.50
33105;DHT22;19476;51.448;6.674;2023-05-02T12:03:31;19.60;34.90
33105;DHT22;19476;51.448;6.674;2023-05-02T12:06:08;19.60;34.00
33105;DHT22;19476;51.448;6.674;2023-05-02T12:08:41;19.60;34.10
33105;DHT22;19476;51.448;6.674;2023-05-02T12:11:14;19.60;35.00
33105;DHT22;19476;51.448;6.674;2023-05-02T12:13:45;19.60;35.30
33105;DHT22;19476;51.448;6.674;2023-05-02T12:16:13;19.80;34.40
33105;DHT22;19476;51.448;6.674;2023-05-02T12:18:39;20.00;35.10
33105;DHT22;19476;51.448;6.674;2023-05-02T12:21:09;20.10;34.90
33105;DHT22;19476;51.448;6.674;2023-05-02T12:23:36;20.20;34.60
33105;DHT22;19476;51.448;6.674;2023-05-02T12:26:19;20.40;34.50
33105;DHT22;19476;51.448;6.674;2023-05-02T12:28:53;20.40;33.00
33105;DHT22;19476;51.448;6.674;2023-05-02T12:31:20;20.50;33.30
33105;DHT22;19476;51.448;6.674;2023-05-02T12:33:46;20.60;33.80
33105;DHT22;19476;51.448;6.674;2023-05-02T12:36:14;20.60;34.00
33105;DHT22;19476;51.448;6.674;2023-05-02T12:38:47;20.70;34.50
33105;DHT22;19476;51.448;6.674;2023-05-02T12:41:15;20.90;33.30
33105;DHT22;19476;51.448;6.674;2023-05-02T12:43:50;20.70;33.40
33105;DHT22;19476;51.448;6.674;2023-05-02T12:46:16;21.20;32.40
33105;DHT22;19476;51.448;6.674;2023-05-02T12:48:42;21.40;32.80
33105;DHT22;19476;51.448;6.674;2023-05-02T12:51:21;21.50;32.60
33105;DHT22;19476;51.448;6.674;2023-05-02T12:53:48;21.50;31.40
33105;DHT22;19476;51.448;6.674;2023-05-02T12:56:13;21.60;31.60
33105;DHT22;19476;51.448;6.674;2023-05-02T12:58:46;21.50;31.80
33105;DHT22;19476;51.448;6.674;2023-05-02T13:01:13;21.40;31.60
33105;DHT22;19476;51.448;6.674;2023-05-02T13:03:40;21.50;32.30
33105;DHT22;19476;51.448;6.674;2023-05-02T13:06:06;21.60;32.10
33105;DHT22;19476;51.448;6.674;2023-05-02T13:08:37;21.70;31.90
33105;DHT22;19476;51.448;6.674;2023-05-02T13:11:07;21.80;31.30
33105;DHT22;19476;51.448;6.674;2023-05-02T13:13:34;21.80;31.40
33105;DHT22;19476;51.448;6.674;2023-05-02T13:16:01;21.70;31.20
33105;DHT22;19476;51.448;6.674;2023-05-02T13:18:28;21.70;31.00
33105;DHT22;19476;51.448;6.674;2023-05-02T13:20:54;21.60;31.10
33105;DHT22;19476;51.448;6.674;2023-05-02T13:23:20;21.50;31.20
33105;DHT22;19476;51.448;6.674;2023-05-02T13:25:47;21.50;31.40
33105;DHT22;19476;51.448;6.674;2023-05-02T13:28:15;21.60;31.30
33105;DHT22;19476;51.448;6.674;2023-05-02T13:30:42;21.60;31.00
33105;DHT22;19476;51.448;6.674;2023-05-02T13:33:08;21.70;31.30
33105;DHT22;19476;51.448;6.674;2023-05-02T13:35:34;21.90;31.20
33105;DHT22;19476;51.448;6.674;2023-05-02T13:38:02;22.00;31.10
33105;DHT22;19476;51.448;6.674;2023-05-02T13:40:28;22.20;30.90
33105;DHT22;19476;51.448;6.674;2023-05-02T13:42:54;22.30;30.50
33105;DHT22;19476;51.448;6.674;2023-05-02T13:45:20;22.50;30.50
33105;DHT22;19476;51.448;6.674;2023-05-02T13:47:46;22.60;30.00
33105;DHT22;19476;51.448;6.674;2023-05-02T13:50:12;22.70;29.80
33105;DHT22;19476;51.448;6.674;2023-05-02T13:52:38;22.80;30.00
33105;DHT22;19476;51.448;6.674;2023-05-02T13:55:05;22.80;29.60
33105;DHT22;19476;51.448;6.674;2023-05-02T13:57:32;22.90;29.70
33105;DHT22;19476;51.448;6.674;2023-05-02T13:59:58;23.00;29.70
33105;DHT22;19476;51.448;6.674;2023-05-02T14:02:24;23.10;29.60
33105;DHT22;19476;51.448;6.674;2023-05-02T14:04:50;23.30;29.60
33105;DHT22;19476;51.448;6.674;2023-05-02T14:07:17;23.40;29.50
33105;DHT22;19476;51.448;6.674;2023-05-02T14:09:43;23.50;29.40
33105;DHT22;19476;51.448;6.674;2023-05-02T14:12:09;23.60;29.10
33105;DHT22;19476;51.448;6.674;2023-05-02T14:14:35;23.70;28.80
33105;DHT22;19476;51.448;6.674;2023-05-02T14:17:03;23.80;28.90
33105;DHT22;19476;51.448;6.674;2023-05-02T14:19:30;23.90;28.80
33105;DHT22;19476;51.448;6.674;2023-05-02T14:21:57;24.00;28.80
33105;DHT22;19476;51.448;6.674;2023-05-02T14:24:24;24.20;28.80
33105;DHT22;19476;51.448;6.674;2023-05-02T14:26:49;24.30;28.70
33105;DHT22;19476;51.448;6.674;2023-05-02T14:29:16;24.50;28.50
33105;DHT22;19476;51.448;6.674;2023-05-02T14:31:43;24.70;28.40
33105;DHT22;19476;51.448;6.674;2023-05-02T14:34:12;24.80;28.20
33105;DHT22;19476;51.448;6.674;2023-05-02T14:36:38;25.00;27.70
33105;DHT22;19476;51.448;6.674;2023-05-02T14:39:05;25.00;27.70
33105;DHT22;19476;51.448;6.674;2023-05-02T14:41:32;25.10;27.40
33105;DHT22;19476;51.448;6.674;2023-05-02T14:43:58;25.10;27.50
33105;DHT22;19476;51.448;6.674;2023-05-02T14:46:24;25.20;27.60
33105;DHT22;19476;51.448;6.674;2023-05-02T14:48:50;25.20;27.40
33105;DHT22;19476;51.448;6.674;2023-05-02T14:51:16;25.30;27.40
33105;DHT22;19476;51.448;6.674;2023-05-02T14:53:43;25.40;27.40
33105;DHT22;19476;51.448;6.674;2023-05-02T14:56:13;25.40;27.20
33105;DHT22;19476;51.448;6.674;2023-05-02T14:58:41;25.30;26.90
33105;DHT22;19476;51.448;6.674;2023-05-02T15:01:16;25.30;27.20
33105;DHT22;19476;51.448;6.674;2023-05-02T15:03:43;25.30;27.00
33105;DHT22;19476;51.448;6.674;2023-05-02T15:06:13;25.20;27.40
33105;DHT22;19476;51.448;6.674;2023-05-02T15:08:39;25.10;27.30
33105;DHT22;19476;51.448;6.674;2023-05-02T15:11:08;25.00;27.20
33105;DHT22;19476;51.448;6.674;2023-05-02T15:13:35;25.00;27.30
33105;DHT22;19476;51.448;6.674;2023-05-02T15:16:08;25.00;27.20
33105;DHT22;19476;51.448;6.674;2023-05-02T15:18:36;25.10;26.90
33105;DHT22;19476;51.448;6.674;2023-05-02T15:21:02;25.10;27.40
33105;DHT22;19476;51.448;6.674;2023-05-02T15:23:29;25.20;27.10
33105;DHT22;19476;51.448;6.674;2023-05-02T15:25:58;25.40;26.90
33105;DHT22;19476;51.448;6.674;2023-05-02T15:28:35;25.40;26.80
33105;DHT22;19476;51.448;6.674;2023-05-02T15:31:01;25.50;26.70
33105;DHT22;19476;51.448;6.674;2023-05-02T15:33:27;25.60;26.70
33105;DHT22;19476;51.448;6.674;2023-05-02T15:35:56;25.60;26.70
33105;DHT22;19476;51.448;6.674;2023-05-02T15:38:25;25.60;26.40
33105;DHT22;19476;51.448;6.674;2023-05-02T15:40:55;25.70;26.30
33105;DHT22;19476;51.448;6.674;2023-05-02T15:43:22;25.60;25.90
33105;DHT22;19476;51.448;6.674;2023-05-02T15:46:00;25.80;26.20
33105;DHT22;19476;51.448;6.674;2023-05-02T15:48:28;25.80;25.80
33105;DHT22;19476;51.448;6.674;2023-05-02T15:50:57;25.80;26.00
33105;DHT22;19476;51.448;6.674;2023-05-02T15:53:24;25.60;26.00
33105;DHT22;19476;51.448;6.674;2023-05-02T15:55:51;25.60;26.20
33105;DHT22;19476;51.448;6.674;2023-05-02T15:58:17;25.50;26.20
33105;DHT22;19476;51.448;6.674;2023-05-02T16:00:44;25.50;26.20
33105;DHT22;19476;51.448;6.674;2023-05-02T16:03:12;25.60;26.20
33105;DHT22;19476;51.448;6.674;2023-05-02T16:05:43;25.70;26.30